createdAt,value
2022-10-12T00:04:25.172Z,101639.04
2022-10-12T00:10:14.289Z,101638.29
2022-10-12T00:16:05.214Z,101639.98
2022-10-12T01:15:46.260Z,101662.45
2022-10-12T01:22:06.194Z,101664.52
2022-10-12T01:28:00.266Z,101664.33
2022-10-12T01:49:06.642Z,101673.80
2022-10-12T01:54:23.244Z,101677.45
2022-10-12T01:59:54.524Z,101681.63
2022-10-12T02:05:20.681Z,101687.39
2022-10-12T02:10:57.776Z,101687.70
2022-10-12T02:16:02.406Z,101690.17
2022-10-12T02:21:05.630Z,101688.57
2022-10-12T02:26:09.677Z,101691.31
2022-10-12T02:31:22.332Z,101690.85
2022-10-12T02:37:17.580Z,101689.54
2022-10-12T02:42:27.267Z,101692.52
2022-10-12T02:47:30.026Z,101689.77
2022-10-12T02:52:32.833Z,101694.73
2022-10-12T02:57:35.794Z,101694.21
2022-10-12T03:02:38.916Z,101696.65
2022-10-12T03:07:41.698Z,101692.94
2022-10-12T03:12:49.124Z,101690.80
2022-10-12T03:17:53.001Z,101686.51
2022-10-12T03:22:55.882Z,101682.14
2022-10-12T03:27:58.655Z,101682.80
2022-10-12T03:33:01.431Z,101686.58
2022-10-12T03:38:04.379Z,101692.06
2022-10-12T03:43:07.653Z,101693.93
2022-10-12T03:48:10.501Z,101692.44
2022-10-12T03:53:13.193Z,101691.99
2022-10-12T03:58:16.803Z,101697.81
2022-10-12T04:03:19.726Z,101697.25
2022-10-12T04:08:23.257Z,101696.00
2022-10-12T04:13:26.801Z,101696.35
2022-10-12T04:18:29.523Z,101699.27
2022-10-12T04:23:32.248Z,101701.27
2022-10-12T04:28:35.331Z,101697.14
2022-10-12T04:33:38.195Z,101699.75
2022-10-12T04:38:40.987Z,101701.27
2022-10-12T04:43:43.797Z,101704.08
2022-10-12T04:48:46.605Z,101706.30
2022-10-12T04:53:49.419Z,101709.15
2022-10-12T04:58:52.151Z,101707.15
2022-10-12T05:03:54.893Z,101713.16
2022-10-12T05:08:57.835Z,101716.58
2022-10-12T05:14:00.909Z,101729.74
2022-10-12T05:19:04.199Z,101735.16
2022-10-12T05:24:07.404Z,101735.04
2022-10-12T05:29:10.201Z,101736.83
2022-10-12T05:34:12.900Z,101741.52
2022-10-12T05:39:15.615Z,101747.39
2022-10-12T05:44:18.395Z,101747.40
2022-10-12T05:49:21.172Z,101748.95
2022-10-12T05:54:23.878Z,101751.65
2022-10-12T05:59:26.722Z,101762.23
2022-10-12T06:04:29.535Z,101761.36
2022-10-12T06:09:32.372Z,101761.61
2022-10-12T06:14:35.212Z,101761.21
2022-10-12T06:19:38.080Z,101760.40
2022-10-12T06:24:40.863Z,101763.54
2022-10-12T06:29:43.682Z,101765.66
2022-10-12T06:34:46.638Z,101768.41
2022-10-12T06:39:49.564Z,101770.89
2022-10-12T06:44:52.314Z,101771.94
2022-10-12T06:49:55.266Z,101775.09
2022-10-12T06:54:58.035Z,101780.27
2022-10-12T07:00:00.837Z,101779.13
2022-10-12T07:05:04.286Z,101775.85
2022-10-12T07:10:07.509Z,101771.40
2022-10-12T07:15:10.854Z,101775.40
2022-10-12T07:20:14.008Z,101779.46
2022-10-12T07:25:16.974Z,101778.10
2022-10-12T07:30:19.683Z,101782.59
2022-10-12T07:35:22.600Z,101780.14
2022-10-12T07:40:26.470Z,101777.95
2022-10-12T07:45:29.250Z,101773.63
2022-10-12T07:50:32.037Z,101770.44
2022-10-12T07:55:35.188Z,101767.27
2022-10-12T08:00:37.999Z,101769.54
2022-10-12T08:05:40.797Z,101770.59
2022-10-12T08:10:43.554Z,101767.61
2022-10-12T08:15:50.414Z,101766.95
2022-10-12T08:20:53.549Z,101771.17
2022-10-12T08:25:57.555Z,101772.70
2022-10-12T08:31:00.435Z,101770.78
2022-10-12T08:36:05.260Z,101772.40
2022-10-12T08:41:23.260Z,101761.15
2022-10-12T08:46:26.530Z,101765.23
2022-10-12T08:51:31.867Z,101764.46
2022-10-12T08:56:36.096Z,101768.70
2022-10-12T09:01:52.491Z,101767.50
2022-10-12T09:07:03.445Z,101773.72
2022-10-12T09:12:25.250Z,101770.23
2022-10-12T09:17:40.624Z,101764.45
2022-10-12T09:22:45.676Z,101760.79
2022-10-12T09:27:48.656Z,101758.00
2022-10-12T09:33:12.157Z,101753.67
2022-10-12T09:38:15.451Z,101755.19
2022-10-12T09:43:18.250Z,101758.55
2022-10-12T09:48:23.302Z,101761.55
2022-10-12T09:53:32.806Z,101760.10
2022-10-12T09:59:05.006Z,101760.29
2022-10-12T10:04:24.385Z,101762.14
2022-10-12T10:09:30.310Z,101765.15
2022-10-12T10:14:33.139Z,101758.80
2022-10-12T10:19:36.120Z,101757.29
2022-10-12T10:24:39.024Z,101760.30
2022-10-12T10:29:42.302Z,101751.73
2022-10-12T10:34:45.076Z,101750.19
2022-10-12T10:39:51.033Z,101746.54
2022-10-12T10:45:02.957Z,101745.90
2022-10-12T10:50:06.733Z,101738.54
2022-10-12T10:55:26.634Z,101740.80
2022-10-12T11:00:39.850Z,101735.14
2022-10-12T11:05:45.850Z,101732.41
2022-10-12T11:10:56.565Z,101732.23
2022-10-12T11:16:11.042Z,101721.37
2022-10-12T11:21:31.150Z,101720.55
2022-10-12T11:26:48.395Z,101719.65
2022-10-12T11:32:35.041Z,101709.54
2022-10-12T11:37:44.056Z,101709.10
2022-10-12T11:42:46.854Z,101706.39
2022-10-12T11:47:54.180Z,101700.43
2022-10-12T11:52:57.288Z,101697.20
2022-10-12T11:58:07.450Z,101696.51
2022-10-12T12:03:29.630Z,101693.11
2022-10-12T12:08:41.617Z,101696.13
2022-10-12T12:13:44.532Z,101689.98
2022-10-12T12:19:12.252Z,101696.39
2022-10-12T12:24:16.843Z,101694.55
2022-10-12T12:29:27.416Z,101693.19
2022-10-12T12:34:30.209Z,101689.14
2022-10-12T12:39:34.047Z,101683.42
2022-10-12T12:44:42.814Z,101683.91
2022-10-12T12:49:54.999Z,101682.39
2022-10-12T12:55:16.396Z,101678.68
2022-10-12T13:00:22.171Z,101678.88
2022-10-12T13:05:50.525Z,101678.31
2022-10-12T13:11:39.624Z,101683.87
2022-10-12T13:22:31.588Z,101683.06
2022-10-12T13:27:50.984Z,101683.94
2022-10-12T13:33:06.169Z,101680.66
2022-10-12T13:38:15.044Z,101682.57
2022-10-12T13:43:36.636Z,101682.36
2022-10-12T13:48:58.743Z,101680.93
2022-10-12T13:54:02.228Z,101677.95
2022-10-12T13:59:08.369Z,101672.86
2022-10-12T14:04:13.594Z,101675.30
2022-10-12T14:09:20.865Z,101677.02
2022-10-12T14:14:34.267Z,101674.69
2022-10-12T14:19:40.318Z,101676.65
2022-10-12T14:24:43.097Z,101671.73
2022-10-12T14:29:46.262Z,101674.03
2022-10-12T14:34:50.373Z,101671.30
2022-10-12T14:39:59.625Z,101671.73
2022-10-12T14:45:07.021Z,101671.33
2022-10-12T14:50:11.748Z,101675.58
2022-10-12T14:55:20.807Z,101685.16
2022-10-12T15:00:27.909Z,101684.48
2022-10-12T15:05:32.139Z,101681.92
2022-10-12T15:10:35.506Z,101677.80
2022-10-12T15:15:39.707Z,101679.67
2022-10-12T15:20:48.278Z,101679.28
2022-10-12T15:25:55.932Z,101677.84
2022-10-12T15:31:16.938Z,101675.31
2022-10-12T15:36:20.252Z,101675.55
2022-10-12T15:41:23.076Z,101673.33
2022-10-12T15:46:27.428Z,101675.63
2022-10-12T15:51:30.270Z,101672.79
2022-10-12T15:56:34.515Z,101669.52
2022-10-12T16:01:37.561Z,101671.59
2022-10-12T16:06:41.161Z,101673.65
2022-10-12T16:11:43.947Z,101676.41
2022-10-12T16:16:46.823Z,101677.58
2022-10-12T16:21:49.601Z,101678.06
2022-10-12T16:26:52.489Z,101678.13
2022-10-12T16:31:55.761Z,101678.46
2022-10-12T16:36:59.026Z,101677.44
2022-10-12T16:42:01.888Z,101678.91
2022-10-12T16:47:05.914Z,101682.55
2022-10-12T16:52:09.016Z,101681.36
2022-10-12T16:57:12.430Z,101681.62
2022-10-12T17:02:17.026Z,101679.94
2022-10-12T17:07:20.178Z,101679.70
2022-10-12T17:12:23.861Z,101679.19
2022-10-12T17:17:26.818Z,101676.87
2022-10-12T17:22:29.639Z,101675.16
2022-10-12T17:27:32.917Z,101677.96
2022-10-12T17:32:37.957Z,101679.02
2022-10-12T17:37:40.829Z,101683.52
2022-10-12T17:42:43.617Z,101681.00
2022-10-12T17:47:49.046Z,101680.08
2022-10-12T17:52:51.889Z,101683.36
2022-10-12T17:57:54.691Z,101685.48
2022-10-12T18:02:58.617Z,101682.16
2022-10-12T18:08:01.557Z,101678.75
2022-10-12T18:13:04.408Z,101672.52
2022-10-12T18:18:10.470Z,101678.14
2022-10-12T18:23:15.996Z,101677.30
2022-10-12T18:28:19.064Z,101679.87
2022-10-12T18:33:22.616Z,101678.15
2022-10-12T18:38:25.479Z,101681.93
2022-10-12T18:43:28.318Z,101681.26
2022-10-12T18:48:31.179Z,101681.98
2022-10-12T18:53:35.078Z,101682.13
2022-10-12T18:58:42.013Z,101685.11
2022-10-12T19:03:44.983Z,101686.22
2022-10-12T19:08:48.581Z,101689.48
2022-10-12T19:13:57.251Z,101692.92
2022-10-12T19:19:02.803Z,101690.46
2022-10-12T19:24:07.026Z,101693.39
2022-10-12T19:29:10.229Z,101688.48
2022-10-12T19:34:14.868Z,101696.02
2022-10-12T19:39:20.650Z,101693.20
2022-10-12T19:44:23.612Z,101701.54
2022-10-12T19:49:26.365Z,101697.18
2022-10-12T19:54:30.539Z,101703.31
2022-10-12T19:59:35.969Z,101703.22
2022-10-12T20:04:38.756Z,101704.69
2022-10-12T20:09:41.553Z,101697.54
2022-10-12T20:14:44.312Z,101695.47
2022-10-12T20:19:49.830Z,101694.14
2022-10-12T20:24:52.853Z,101695.59
2022-10-12T20:29:55.644Z,101696.40
2022-10-12T20:34:58.462Z,101701.95
2022-10-12T20:40:01.868Z,101710.04
2022-10-12T20:45:05.281Z,101707.50
2022-10-12T20:50:08.570Z,101704.42
2022-10-12T20:55:11.517Z,101702.93
2022-10-12T21:00:14.510Z,101707.64
2022-10-12T21:05:17.452Z,101714.48
2022-10-12T21:10:20.191Z,101713.73
2022-10-12T21:15:22.978Z,101714.94
2022-10-12T21:20:25.842Z,101714.35
2022-10-12T21:25:28.645Z,101714.98
2022-10-12T21:30:31.404Z,101710.42
2022-10-12T21:35:34.525Z,101712.15
2022-10-12T21:40:37.365Z,101712.77
2022-10-12T21:45:40.185Z,101716.22
2022-10-12T21:50:42.966Z,101721.84
2022-10-12T21:55:45.981Z,101719.23
2022-10-12T22:00:49.008Z,101714.61
2022-10-12T22:05:51.775Z,101715.42
2022-10-12T22:10:54.944Z,101716.82
2022-10-12T22:16:06.833Z,101715.00
2022-10-12T22:21:12.804Z,101715.63
2022-10-12T22:26:19.013Z,101713.10
2022-10-12T22:31:22.953Z,101715.81
2022-10-12T22:36:26.078Z,101714.27
2022-10-12T22:41:28.895Z,101713.85
2022-10-12T22:46:31.662Z,101707.93
2022-10-12T22:51:37.369Z,101711.44
2022-10-12T22:56:40.878Z,101714.63
2022-10-12T23:01:43.854Z,101718.69
2022-10-12T23:06:46.673Z,101718.61
2022-10-12T23:11:49.907Z,101719.27
2022-10-12T23:16:52.766Z,101718.11
2022-10-12T23:21:55.505Z,101721.06
2022-10-12T23:26:58.229Z,101720.84
2022-10-12T23:32:00.967Z,101721.27
2022-10-12T23:37:03.728Z,101719.70
2022-10-12T23:42:06.473Z,101722.77
2022-10-12T23:47:09.277Z,101721.98
2022-10-12T23:52:12.033Z,101720.17
2022-10-12T23:57:41.502Z,101722.90
